sensor_id;sensor_type;location;lat;lon;timestamp;P1;durP1;ratioP1;P2;durP2;ratioP2
85935;SDS011;76481;54.346;10.210;2024-03-22T00:00:32;23.20;;;9.43;;
85935;SDS011;76481;54.346;10.210;2024-03-22T00:02:57;18.00;;;8.52;;
85935;SDS011;76481;54.346;10.210;2024-03-22T00:05:22;24.23;;;8.82;;
85935;SDS011;76481;54.346;10.210;2024-03-22T00:07:48;24.10;;;9.20;;
85935;SDS011;76481;54.346;10.210;2024-03-22T00:10:14;24.02;;;9.35;;
85935;SDS011;76481;54.346;10.210;2024-03-22T00:12:39;23.75;;;9.52;;
85935;SDS011;76481;54.346;10.210;2024-03-22T00:15:05;23.77;;;9.07;;
85935;SDS011;76481;54.346;10.210;2024-03-22T00:17:31;21.77;;;9.05;;
85935;SDS011;76481;54.346;10.210;2024-03-22T00:19:57;21.27;;;9.05;;
85935;SDS011;76481;54.346;10.210;2024-03-22T00:22:22;23.55;;;9.48;;
85935;SDS011;76481;54.346;10.210;2024-03-22T00:24:47;21.77;;;9.80;;
85935;SDS011;76481;54.346;10.210;2024-03-22T00:27:13;22.95;;;9.90;;
85935;SDS011;76481;54.346;10.210;2024-03-22T00:29:38;22.27;;;9.52;;
85935;SDS011;76481;54.346;10.210;2024-03-22T00:32:04;21.27;;;9.20;;
85935;SDS011;76481;54.346;10.210;2024-03-22T00:34:30;20.83;;;8.50;;
85935;SDS011;76481;54.346;10.210;2024-03-22T00:36:55;21.77;;;9.52;;
85935;SDS011;76481;54.346;10.210;2024-03-22T00:39:21;26.80;;;9.57;;
85935;SDS011;76481;54.346;10.210;2024-03-22T00:41:46;19.27;;;8.55;;
85935;SDS011;76481;54.346;10.210;2024-03-22T00:44:12;18.38;;;7.90;;
85935;SDS011;76481;54.346;10.210;2024-03-22T00:46:37;24.90;;;9.73;;
85935;SDS011;76481;54.346;10.210;2024-03-22T00:49:03;20.63;;;8.55;;
85935;SDS011;76481;54.346;10.210;2024-03-22T00:51:28;23.35;;;9.57;;
85935;SDS011;76481;54.346;10.210;2024-03-22T00:53:53;23.10;;;9.30;;
85935;SDS011;76481;54.346;10.210;2024-03-22T00:56:19;20.88;;;9.13;;
85935;SDS011;76481;54.346;10.210;2024-03-22T00:58:45;30.77;;;9.75;;
85935;SDS011;76481;54.346;10.210;2024-03-22T01:01:10;25.95;;;9.80;;
85935;SDS011;76481;54.346;10.210;2024-03-22T01:03:36;26.58;;;10.30;;
85935;SDS011;76481;54.346;10.210;2024-03-22T01:06:01;25.25;;;9.88;;
85935;SDS011;76481;54.346;10.210;2024-03-22T01:08:27;24.63;;;10.40;;
85935;SDS011;76481;54.346;10.210;2024-03-22T01:10:52;23.73;;;9.35;;
85935;SDS011;76481;54.346;10.210;2024-03-22T01:13:18;25.50;;;10.35;;
85935;SDS011;76481;54.346;10.210;2024-03-22T01:15:44;25.80;;;10.48;;
85935;SDS011;76481;54.346;10.210;2024-03-22T01:18:11;26.20;;;10.10;;
85935;SDS011;76481;54.346;10.210;2024-03-22T01:20:37;24.88;;;9.85;;
85935;SDS011;76481;54.346;10.210;2024-03-22T01:23:04;24.40;;;9.77;;
85935;SDS011;76481;54.346;10.210;2024-03-22T01:25:30;24.52;;;10.55;;
85935;SDS011;76481;54.346;10.210;2024-03-22T01:27:55;24.23;;;9.65;;
85935;SDS011;76481;54.346;10.210;2024-03-22T01:30:21;27.65;;;10.90;;
85935;SDS011;76481;54.346;10.210;2024-03-22T01:32:47;22.85;;;10.23;;
85935;SDS011;76481;54.346;10.210;2024-03-22T01:35:13;24.42;;;9.93;;
85935;SDS011;76481;54.346;10.210;2024-03-22T01:37:38;26.90;;;10.65;;
85935;SDS011;76481;54.346;10.210;2024-03-22T01:40:04;25.33;;;11.02;;
85935;SDS011;76481;54.346;10.210;2024-03-22T01:42:30;27.13;;;11.10;;
85935;SDS011;76481;54.346;10.210;2024-03-22T01:44:56;27.25;;;11.80;;
85935;SDS011;76481;54.346;10.210;2024-03-22T01:47:21;26.80;;;11.18;;
85935;SDS011;76481;54.346;10.210;2024-03-22T01:49:47;28.05;;;11.77;;
85935;SDS011;76481;54.346;10.210;2024-03-22T01:52:14;29.77;;;11.77;;
85935;SDS011;76481;54.346;10.210;2024-03-22T01:54:40;30.15;;;11.82;;
85935;SDS011;76481;54.346;10.210;2024-03-22T01:57:05;26.27;;;11.35;;
85935;SDS011;76481;54.346;10.210;2024-03-22T01:59:32;27.90;;;11.93;;
85935;SDS011;76481;54.346;10.210;2024-03-22T02:01:58;30.73;;;12.43;;
85935;SDS011;76481;54.346;10.210;2024-03-22T02:04:23;30.55;;;11.77;;
85935;SDS011;76481;54.346;10.210;2024-03-22T02:06:48;27.05;;;11.60;;
85935;SDS011;76481;54.346;10.210;2024-03-22T02:09:14;29.25;;;12.00;;
85935;SDS011;76481;54.346;10.210;2024-03-22T02:11:40;33.83;;;12.80;;
85935;SDS011;76481;54.346;10.210;2024-03-22T02:14:06;26.77;;;11.02;;
85935;SDS011;76481;54.346;10.210;2024-03-22T02:16:31;33.30;;;13.32;;
85935;SDS011;76481;54.346;10.210;2024-03-22T02:18:57;26.75;;;11.23;;
85935;SDS011;76481;54.346;10.210;2024-03-22T02:21:22;34.25;;;12.60;;
85935;SDS011;76481;54.346;10.210;2024-03-22T02:23:48;33.22;;;13.20;;
85935;SDS011;76481;54.346;10.210;2024-03-22T02:26:13;32.72;;;12.82;;
85935;SDS011;76481;54.346;10.210;2024-03-22T02:28:38;34.25;;;13.20;;
85935;SDS011;76481;54.346;10.210;2024-03-22T02:31:04;34.45;;;13.30;;
85935;SDS011;76481;54.346;10.210;2024-03-22T02:33:30;33.88;;;14.60;;
85935;SDS011;76481;54.346;10.210;2024-03-22T02:35:56;32.75;;;13.43;;
85935;SDS011;76481;54.346;10.210;2024-03-22T02:38:22;32.35;;;13.90;;
85935;SDS011;76481;54.346;10.210;2024-03-22T02:40:48;34.42;;;13.65;;
85935;SDS011;76481;54.346;10.210;2024-03-22T02:43:16;32.93;;;13.17;;
85935;SDS011;76481;54.346;10.210;2024-03-22T02:45:46;32.58;;;13.57;;
85935;SDS011;76481;54.346;10.210;2024-03-22T02:48:12;30.20;;;13.27;;
85935;SDS011;76481;54.346;10.210;2024-03-22T02:50:38;31.83;;;13.50;;
85935;SDS011;76481;54.346;10.210;2024-03-22T02:53:04;34.53;;;13.88;;
85935;SDS011;76481;54.346;10.210;2024-03-22T02:55:30;35.75;;;14.40;;
85935;SDS011;76481;54.346;10.210;2024-03-22T02:58:01;33.53;;;14.27;;
85935;SDS011;76481;54.346;10.210;2024-03-22T03:00:26;35.55;;;14.10;;
85935;SDS011;76481;54.346;10.210;2024-03-22T03:02:52;33.33;;;13.73;;
85935;SDS011;76481;54.346;10.210;2024-03-22T03:05:17;35.53;;;14.65;;
85935;SDS011;76481;54.346;10.210;2024-03-22T03:07:43;38.00;;;16.10;;
85935;SDS011;76481;54.346;10.210;2024-03-22T03:10:09;35.78;;;14.63;;
85935;SDS011;76481;54.346;10.210;2024-03-22T03:12:35;35.13;;;14.60;;
85935;SDS011;76481;54.346;10.210;2024-03-22T03:15:00;35.75;;;15.00;;
85935;SDS011;76481;54.346;10.210;2024-03-22T03:17:26;34.08;;;15.23;;
85935;SDS011;76481;54.346;10.210;2024-03-22T03:19:51;35.50;;;14.85;;
85935;SDS011;76481;54.346;10.210;2024-03-22T03:22:17;37.80;;;14.77;;
85935;SDS011;76481;54.346;10.210;2024-03-22T03:24:44;35.38;;;14.98;;
85935;SDS011;76481;54.346;10.210;2024-03-22T03:27:10;35.53;;;15.88;;
85935;SDS011;76481;54.346;10.210;2024-03-22T03:29:36;35.42;;;15.02;;
85935;SDS011;76481;54.346;10.210;2024-03-22T03:32:01;36.20;;;15.55;;
85935;SDS011;76481;54.346;10.210;2024-03-22T03:34:27;37.20;;;15.88;;
85935;SDS011;76481;54.346;10.210;2024-03-22T03:36:52;37.95;;;15.90;;
85935;SDS011;76481;54.346;10.210;2024-03-22T03:39:18;37.38;;;16.20;;
85935;SDS011;76481;54.346;10.210;2024-03-22T03:41:43;38.17;;;16.70;;
85935;SDS011;76481;54.346;10.210;2024-03-22T03:44:08;38.38;;;15.60;;
85935;SDS011;76481;54.346;10.210;2024-03-22T03:46:34;43.22;;;16.58;;
85935;SDS011;76481;54.346;10.210;2024-03-22T03:48:59;40.50;;;16.70;;
85935;SDS011;76481;54.346;10.210;2024-03-22T03:51:25;40.45;;;16.13;;
85935;SDS011;76481;54.346;10.210;2024-03-22T03:53:50;38.55;;;16.58;;
85935;SDS011;76481;54.346;10.210;2024-03-22T03:56:16;40.33;;;16.60;;
85935;SDS011;76481;54.346;10.210;2024-03-22T03:58:41;38.08;;;17.27;;
85935;SDS011;76481;54.346;10.210;2024-03-22T04:01:07;41.90;;;16.10;;
85935;SDS011;76481;54.346;10.210;2024-03-22T04:03:33;36.83;;;14.90;;
85935;SDS011;76481;54.346;10.210;2024-03-22T04:05:59;40.03;;;16.52;;
85935;SDS011;76481;54.346;10.210;2024-03-22T04:08:25;37.45;;;15.93;;
85935;SDS011;76481;54.346;10.210;2024-03-22T04:10:54;35.67;;;16.60;;
85935;SDS011;76481;54.346;10.210;2024-03-22T04:13:27;36.50;;;16.17;;
85935;SDS011;76481;54.346;10.210;2024-03-22T04:15:58;39.35;;;17.02;;
85935;SDS011;76481;54.346;10.210;2024-03-22T04:18:24;40.60;;;17.70;;
85935;SDS011;76481;54.346;10.210;2024-03-22T04:20:53;37.92;;;16.48;;
85935;SDS011;76481;54.346;10.210;2024-03-22T04:23:19;38.50;;;16.67;;
85935;SDS011;76481;54.346;10.210;2024-03-22T04:25:55;44.05;;;17.90;;
85935;SDS011;76481;54.346;10.210;2024-03-22T04:28:21;35.88;;;16.60;;
85935;SDS011;76481;54.346;10.210;2024-03-22T04:31:06;39.25;;;15.90;;
85935;SDS011;76481;54.346;10.210;2024-03-22T04:33:33;38.50;;;17.08;;
85935;SDS011;76481;54.346;10.210;2024-03-22T04:35:59;40.67;;;16.92;;
85935;SDS011;76481;54.346;10.210;2024-03-22T04:38:28;43.78;;;18.15;;
85935;SDS011;76481;54.346;10.210;2024-03-22T04:40:55;37.67;;;17.05;;
85935;SDS011;76481;54.346;10.210;2024-03-22T04:43:22;42.38;;;17.50;;
85935;SDS011;76481;54.346;10.210;2024-03-22T04:45:49;43.92;;;17.55;;
85935;SDS011;76481;54.346;10.210;2024-03-22T04:48:16;42.30;;;18.35;;
85935;SDS011;76481;54.346;10.210;2024-03-22T04:50:44;38.35;;;16.85;;
85935;SDS011;76481;54.346;10.210;2024-03-22T04:53:10;42.33;;;16.75;;
85935;SDS011;76481;54.346;10.210;2024-03-22T04:55:35;40.13;;;17.80;;
85935;SDS011;76481;54.346;10.210;2024-03-22T04:58:01;51.25;;;18.65;;
85935;SDS011;76481;54.346;10.210;2024-03-22T05:00:27;44.65;;;19.45;;
85935;SDS011;76481;54.346;10.210;2024-03-22T05:02:53;43.53;;;19.20;;
85935;SDS011;76481;54.346;10.210;2024-03-22T05:05:19;46.08;;;19.05;;
85935;SDS011;76481;54.346;10.210;2024-03-22T05:07:44;46.38;;;18.95;;
85935;SDS011;76481;54.346;10.210;2024-03-22T05:10:10;48.00;;;20.35;;
85935;SDS011;76481;54.346;10.210;2024-03-22T05:12:37;49.88;;;20.15;;
85935;SDS011;76481;54.346;10.210;2024-03-22T05:15:03;46.75;;;19.50;;
85935;SDS011;76481;54.346;10.210;2024-03-22T05:17:29;46.53;;;20.65;;
85935;SDS011;76481;54.346;10.210;2024-03-22T05:20:00;47.88;;;19.25;;
85935;SDS011;76481;54.346;10.210;2024-03-22T05:22:37;47.88;;;20.25;;
85935;SDS011;76481;54.346;10.210;2024-03-22T05:25:03;51.65;;;20.40;;
85935;SDS011;76481;54.346;10.210;2024-03-22T05:27:30;50.33;;;20.73;;
85935;SDS011;76481;54.346;10.210;2024-03-22T05:29:56;53.58;;;21.10;;
85935;SDS011;76481;54.346;10.210;2024-03-22T05:32:21;52.47;;;20.75;;
85935;SDS011;76481;54.346;10.210;2024-03-22T05:34:47;50.50;;;20.70;;
85935;SDS011;76481;54.346;10.210;2024-03-22T05:37:12;48.10;;;20.67;;
85935;SDS011;76481;54.346;10.210;2024-03-22T05:39:38;55.65;;;22.05;;
85935;SDS011;76481;54.346;10.210;2024-03-22T05:42:07;51.00;;;21.15;;
85935;SDS011;76481;54.346;10.210;2024-03-22T05:44:33;57.65;;;22.30;;
85935;SDS011;76481;54.346;10.210;2024-03-22T05:46:59;60.35;;;23.17;;
85935;SDS011;76481;54.346;10.210;2024-03-22T05:49:24;54.25;;;22.00;;
85935;SDS011;76481;54.346;10.210;2024-03-22T05:51:50;56.65;;;22.38;;
85935;SDS011;76481;54.346;10.210;2024-03-22T05:54:15;55.15;;;21.67;;
85935;SDS011;76481;54.346;10.210;2024-03-22T05:56:40;61.00;;;22.80;;
85935;SDS011;76481;54.346;10.210;2024-03-22T05:59:06;55.95;;;22.05;;
85935;SDS011;76481;54.346;10.210;2024-03-22T06:01:31;63.35;;;24.00;;
85935;SDS011;76481;54.346;10.210;2024-03-22T06:03:57;60.53;;;23.67;;
85935;SDS011;76481;54.346;10.210;2024-03-22T06:06:23;63.60;;;25.00;;
85935;SDS011;76481;54.346;10.210;2024-03-22T06:08:51;54.60;;;23.45;;
85935;SDS011;76481;54.346;10.210;2024-03-22T06:11:19;62.13;;;24.47;;
85935;SDS011;76481;54.346;10.210;2024-03-22T06:13:48;59.75;;;22.75;;
85935;SDS011;76481;54.346;10.210;2024-03-22T06:16:14;57.50;;;23.77;;
85935;SDS011;76481;54.346;10.210;2024-03-22T06:18:39;60.92;;;24.55;;
85935;SDS011;76481;54.346;10.210;2024-03-22T06:21:05;65.13;;;24.35;;
85935;SDS011;76481;54.346;10.210;2024-03-22T06:23:31;61.78;;;23.40;;
85935;SDS011;76481;54.346;10.210;2024-03-22T06:25:57;60.65;;;23.00;;
85935;SDS011;76481;54.346;10.210;2024-03-22T06:28:22;61.42;;;23.92;;
85935;SDS011;76481;54.346;10.210;2024-03-22T06:30:48;61.05;;;23.55;;
85935;SDS011;76481;54.346;10.210;2024-03-22T06:33:14;62.13;;;24.38;;
85935;SDS011;76481;54.346;10.210;2024-03-22T06:35:43;65.60;;;24.55;;
85935;SDS011;76481;54.346;10.210;2024-03-22T06:38:08;65.60;;;24.33;;
85935;SDS011;76481;54.346;10.210;2024-03-22T06:40:34;65.47;;;24.60;;
85935;SDS011;76481;54.346;10.210;2024-03-22T06:42:59;62.10;;;24.23;;
85935;SDS011;76481;54.346;10.210;2024-03-22T06:45:25;60.63;;;24.85;;
85935;SDS011;76481;54.346;10.210;2024-03-22T06:47:51;61.88;;;24.23;;
85935;SDS011;76481;54.346;10.210;2024-03-22T06:50:16;57.80;;;23.85;;
85935;SDS011;76481;54.346;10.210;2024-03-22T06:52:49;67.50;;;24.85;;
85935;SDS011;76481;54.346;10.210;2024-03-22T06:55:16;61.58;;;23.33;;
85935;SDS011;76481;54.346;10.210;2024-03-22T06:57:43;57.95;;;21.92;;
85935;SDS011;76481;54.346;10.210;2024-03-22T07:00:10;63.53;;;24.38;;
85935;SDS011;76481;54.346;10.210;2024-03-22T07:02:36;60.58;;;22.58;;
85935;SDS011;76481;54.346;10.210;2024-03-22T07:05:01;60.65;;;22.95;;
85935;SDS011;76481;54.346;10.210;2024-03-22T07:07:29;61.90;;;23.50;;
85935;SDS011;76481;54.346;10.210;2024-03-22T07:09:54;58.13;;;22.17;;
85935;SDS011;76481;54.346;10.210;2024-03-22T07:12:19;59.85;;;23.48;;
85935;SDS011;76481;54.346;10.210;2024-03-22T07:14:45;60.05;;;23.38;;
85935;SDS011;76481;54.346;10.210;2024-03-22T07:17:10;60.20;;;23.98;;
85935;SDS011;76481;54.346;10.210;2024-03-22T07:19:36;61.47;;;23.38;;
85935;SDS011;76481;54.346;10.210;2024-03-22T07:22:02;57.47;;;22.20;;
85935;SDS011;76481;54.346;10.210;2024-03-22T07:24:27;57.25;;;22.60;;
85935;SDS011;76481;54.346;10.210;2024-03-22T07:26:53;59.83;;;22.08;;
85935;SDS011;76481;54.346;10.210;2024-03-22T07:29:18;57.83;;;21.65;;
85935;SDS011;76481;54.346;10.210;2024-03-22T07:31:44;60.88;;;21.65;;
85935;SDS011;76481;54.346;10.210;2024-03-22T07:34:10;55.85;;;22.85;;
85935;SDS011;76481;54.346;10.210;2024-03-22T07:36:39;57.88;;;22.58;;
85935;SDS011;76481;54.346;10.210;2024-03-22T07:39:04;61.15;;;23.10;;
85935;SDS011;76481;54.346;10.210;2024-03-22T07:41:33;56.33;;;21.90;;
85935;SDS011;76481;54.346;10.210;2024-03-22T07:43:59;54.72;;;21.65;;
85935;SDS011;76481;54.346;10.210;2024-03-22T07:46:25;55.17;;;22.00;;
85935;SDS011;76481;54.346;10.210;2024-03-22T07:48:51;51.72;;;21.25;;
85935;SDS011;76481;54.346;10.210;2024-03-22T07:51:17;54.63;;;21.83;;
85935;SDS011;76481;54.346;10.210;2024-03-22T07:53:43;56.88;;;22.60;;
85935;SDS011;76481;54.346;10.210;2024-03-22T07:56:08;57.88;;;22.50;;
85935;SDS011;76481;54.346;10.210;2024-03-22T07:58:34;61.90;;;23.10;;
85935;SDS011;76481;54.346;10.210;2024-03-22T08:00:59;61.97;;;23.65;;
85935;SDS011;76481;54.346;10.210;2024-03-22T08:03:25;63.35;;;24.35;;
85935;SDS011;76481;54.346;10.210;2024-03-22T08:05:50;64.10;;;23.75;;
85935;SDS011;76481;54.346;10.210;2024-03-22T08:08:16;63.42;;;25.48;;
85935;SDS011;76481;54.346;10.210;2024-03-22T08:10:41;62.30;;;26.02;;
85935;SDS011;76481;54.346;10.210;2024-03-22T08:13:07;62.55;;;25.05;;
85935;SDS011;76481;54.346;10.210;2024-03-22T08:15:32;64.55;;;25.02;;
85935;SDS011;76481;54.346;10.210;2024-03-22T08:17:58;61.35;;;23.52;;
85935;SDS011;76481;54.346;10.210;2024-03-22T08:20:23;52.63;;;19.92;;
85935;SDS011;76481;54.346;10.210;2024-03-22T08:22:49;49.35;;;19.70;;
85935;SDS011;76481;54.346;10.210;2024-03-22T08:25:15;56.95;;;19.88;;
85935;SDS011;76481;54.346;10.210;2024-03-22T08:27:45;49.65;;;18.60;;
85935;SDS011;76481;54.346;10.210;2024-03-22T08:30:11;48.42;;;16.98;;
85935;SDS011;76481;54.346;10.210;2024-03-22T08:32:37;44.60;;;16.45;;
85935;SDS011;76481;54.346;10.210;2024-03-22T08:35:05;48.70;;;17.58;;
85935;SDS011;76481;54.346;10.210;2024-03-22T08:38:08;37.30;;;14.68;;
85935;SDS011;76481;54.346;10.210;2024-03-22T08:43:34;36.13;;;13.60;;
85935;SDS011;76481;54.346;10.210;2024-03-22T08:46:19;33.97;;;12.65;;
85935;SDS011;76481;54.346;10.210;2024-03-22T08:49:01;31.08;;;12.55;;
85935;SDS011;76481;54.346;10.210;2024-03-22T08:51:58;33.80;;;12.25;;
85935;SDS011;76481;54.346;10.210;2024-03-22T08:54:29;31.90;;;11.13;;
85935;SDS011;76481;54.346;10.210;2024-03-22T08:57:15;28.05;;;11.00;;
85935;SDS011;76481;54.346;10.210;2024-03-22T08:59:49;27.30;;;10.05;;
85935;SDS011;76481;54.346;10.210;2024-03-22T09:02:25;22.77;;;9.73;;
85935;SDS011;76481;54.346;10.210;2024-03-22T09:04:56;21.58;;;9.57;;
85935;SDS011;76481;54.346;10.210;2024-03-22T09:07:36;22.35;;;9.88;;
85935;SDS011;76481;54.346;10.210;2024-03-22T09:10:08;20.70;;;10.00;;
85935;SDS011;76481;54.346;10.210;2024-03-22T09:12:34;17.48;;;8.27;;
85935;SDS011;76481;54.346;10.210;2024-03-22T09:15:00;19.45;;;8.82;;
85935;SDS011;76481;54.346;10.210;2024-03-22T09:17:30;18.27;;;9.15;;
85935;SDS011;76481;54.346;10.210;2024-03-22T09:19:55;19.00;;;8.98;;
85935;SDS011;76481;54.346;10.210;2024-03-22T09:22:27;17.13;;;8.35;;
85935;SDS011;76481;54.346;10.210;2024-03-22T09:24:57;14.48;;;8.57;;
85935;SDS011;76481;54.346;10.210;2024-03-22T09:27:36;16.08;;;8.05;;
85935;SDS011;76481;54.346;10.210;2024-03-22T09:30:27;15.90;;;8.43;;
85935;SDS011;76481;54.346;10.210;2024-03-22T09:33:14;13.73;;;7.93;;
85935;SDS011;76481;54.346;10.210;2024-03-22T09:35:50;15.18;;;8.52;;
85935;SDS011;76481;54.346;10.210;2024-03-22T09:38:28;14.68;;;8.48;;
85935;SDS011;76481;54.346;10.210;2024-03-22T09:40:58;18.13;;;9.35;;
85935;SDS011;76481;54.346;10.210;2024-03-22T09:43:46;12.32;;;7.25;;
85935;SDS011;76481;54.346;10.210;2024-03-22T09:46:16;13.32;;;7.60;;
85935;SDS011;76481;54.346;10.210;2024-03-22T09:48:47;12.43;;;7.50;;
85935;SDS011;76481;54.346;10.210;2024-03-22T09:51:15;13.85;;;6.70;;
85935;SDS011;76481;54.346;10.210;2024-03-22T09:53:44;15.45;;;7.25;;
85935;SDS011;76481;54.346;10.210;2024-03-22T09:56:31;12.13;;;7.55;;
85935;SDS011;76481;54.346;10.210;2024-03-22T09:59:09;14.63;;;7.32;;
85935;SDS011;76481;54.346;10.210;2024-03-22T10:01:46;13.75;;;7.40;;
85935;SDS011;76481;54.346;10.210;2024-03-22T10:04:25;13.00;;;7.28;;
85935;SDS011;76481;54.346;10.210;2024-03-22T10:06:54;11.98;;;7.72;;
85935;SDS011;76481;54.346;10.210;2024-03-22T10:09:32;12.02;;;6.95;;
85935;SDS011;76481;54.346;10.210;2024-03-22T10:12:00;11.13;;;6.25;;
85935;SDS011;76481;54.346;10.210;2024-03-22T10:14:29;11.30;;;6.60;;
85935;SDS011;76481;54.346;10.210;2024-03-22T10:16:56;10.43;;;5.68;;
85935;SDS011;76481;54.346;10.210;2024-03-22T10:19:22;11.20;;;6.68;;
85935;SDS011;76481;54.346;10.210;2024-03-22T10:22:02;10.75;;;6.10;;
85935;SDS011;76481;54.346;10.210;2024-03-22T10:24:36;13.65;;;6.03;;
85935;SDS011;76481;54.346;10.210;2024-03-22T10:27:11;10.55;;;5.25;;
85935;SDS011;76481;54.346;10.210;2024-03-22T10:29:39;12.43;;;5.05;;
85935;SDS011;76481;54.346;10.210;2024-03-22T10:32:06;10.63;;;5.57;;
85935;SDS011;76481;54.346;10.210;2024-03-22T10:34:33;12.60;;;5.72;;
85935;SDS011;76481;54.346;10.210;2024-03-22T10:37:00;14.07;;;5.88;;
85935;SDS011;76481;54.346;10.210;2024-03-22T10:39:26;13.15;;;6.13;;
85935;SDS011;76481;54.346;10.210;2024-03-22T10:41:52;15.10;;;6.07;;
85935;SDS011;76481;54.346;10.210;2024-03-22T10:44:20;14.40;;;6.70;;
85935;SDS011;76481;54.346;10.210;2024-03-22T10:46:49;13.75;;;6.40;;
85935;SDS011;76481;54.346;10.210;2024-03-22T10:49:20;13.20;;;6.22;;
85935;SDS011;76481;54.346;10.210;2024-03-22T10:51:47;13.50;;;6.65;;
85935;SDS011;76481;54.346;10.210;2024-03-22T10:54:20;13.00;;;6.78;;
85935;SDS011;76481;54.346;10.210;2024-03-22T10:56:47;12.88;;;6.68;;
85935;SDS011;76481;54.346;10.210;2024-03-22T10:59:14;14.52;;;7.05;;
85935;SDS011;76481;54.346;10.210;2024-03-22T11:01:48;13.38;;;7.18;;
85935;SDS011;76481;54.346;10.210;2024-03-22T11:04:17;15.40;;;7.28;;
85935;SDS011;76481;54.346;10.210;2024-03-22T11:06:48;16.60;;;7.85;;
85935;SDS011;76481;54.346;10.210;2024-03-22T11:09:21;17.83;;;8.05;;
85935;SDS011;76481;54.346;10.210;2024-03-22T11:11:47;15.43;;;7.63;;
85935;SDS011;76481;54.346;10.210;2024-03-22T11:14:13;15.35;;;7.78;;
85935;SDS011;76481;54.346;10.210;2024-03-22T11:16:42;15.60;;;8.25;;
85935;SDS011;76481;54.346;10.210;2024-03-22T11:19:09;17.25;;;8.65;;
85935;SDS011;76481;54.346;10.210;2024-03-22T11:21:34;17.25;;;8.35;;
85935;SDS011;76481;54.346;10.210;2024-03-22T11:24:00;17.45;;;7.95;;
85935;SDS011;76481;54.346;10.210;2024-03-22T11:26:26;16.77;;;7.55;;
85935;SDS011;76481;54.346;10.210;2024-03-22T11:28:51;12.38;;;7.18;;
85935;SDS011;76481;54.346;10.210;2024-03-22T11:31:17;13.23;;;6.63;;
85935;SDS011;76481;54.346;10.210;2024-03-22T11:33:45;14.73;;;6.75;;
85935;SDS011;76481;54.346;10.210;2024-03-22T11:36:11;10.77;;;6.40;;
85935;SDS011;76481;54.346;10.210;2024-03-22T11:38:36;10.57;;;5.70;;
85935;SDS011;76481;54.346;10.210;2024-03-22T11:41:02;11.70;;;6.05;;
85935;SDS011;76481;54.346;10.210;2024-03-22T11:43:28;10.60;;;5.97;;
85935;SDS011;76481;54.346;10.210;2024-03-22T11:45:57;10.82;;;5.47;;
85935;SDS011;76481;54.346;10.210;2024-03-22T11:48:23;13.00;;;6.07;;
85935;SDS011;76481;54.346;10.210;2024-03-22T11:50:49;8.60;;;4.95;;
85935;SDS011;76481;54.346;10.210;2024-03-22T11:53:18;10.65;;;5.85;;
85935;SDS011;76481;54.346;10.210;2024-03-22T11:55:43;9.07;;;4.82;;
85935;SDS011;76481;54.346;10.210;2024-03-22T11:58:09;9.13;;;4.80;;
85935;SDS011;76481;54.346;10.210;2024-03-22T12:00:36;10.68;;;4.97;;
85935;SDS011;76481;54.346;10.210;2024-03-22T12:03:03;13.98;;;5.43;;
85935;SDS011;76481;54.346;10.210;2024-03-22T12:05:31;8.65;;;5.03;;
85935;SDS011;76481;54.346;10.210;2024-03-22T12:07:57;8.02;;;4.07;;
85935;SDS011;76481;54.346;10.210;2024-03-22T12:10:22;8.90;;;4.47;;
85935;SDS011;76481;54.346;10.210;2024-03-22T12:12:48;8.23;;;4.80;;
85935;SDS011;76481;54.346;10.210;2024-03-22T12:15:13;9.85;;;4.50;;
85935;SDS011;76481;54.346;10.210;2024-03-22T12:17:39;8.85;;;5.43;;
85935;SDS011;76481;54.346;10.210;2024-03-22T12:20:05;10.57;;;4.72;;
85935;SDS011;76481;54.346;10.210;2024-03-22T12:22:34;8.55;;;4.88;;
85935;SDS011;76481;54.346;10.210;2024-03-22T12:24:59;7.65;;;4.47;;
85935;SDS011;76481;54.346;10.210;2024-03-22T12:27:25;8.45;;;4.25;;
85935;SDS011;76481;54.346;10.210;2024-03-22T12:29:51;6.38;;;3.65;;
85935;SDS011;76481;54.346;10.210;2024-03-22T12:32:16;9.82;;;3.90;;
85935;SDS011;76481;54.346;10.210;2024-03-22T12:34:42;7.20;;;3.25;;
85935;SDS011;76481;54.346;10.210;2024-03-22T12:37:08;8.55;;;3.80;;
85935;SDS011;76481;54.346;10.210;2024-03-22T12:39:34;10.88;;;3.97;;
85935;SDS011;76481;54.346;10.210;2024-03-22T12:42:00;8.10;;;3.45;;
85935;SDS011;76481;54.346;10.210;2024-03-22T12:44:26;8.52;;;3.42;;
85935;SDS011;76481;54.346;10.210;2024-03-22T12:46:51;7.50;;;3.35;;
85935;SDS011;76481;54.346;10.210;2024-03-22T12:49:19;8.18;;;3.45;;
85935;SDS011;76481;54.346;10.210;2024-03-22T12:51:44;9.02;;;3.38;;
85935;SDS011;76481;54.346;10.210;2024-03-22T12:54:11;12.32;;;3.53;;
85935;SDS011;76481;54.346;10.210;2024-03-22T12:56:37;11.63;;;3.80;;
85935;SDS011;76481;54.346;10.210;2024-03-22T12:59:04;10.25;;;2.70;;
85935;SDS011;76481;54.346;10.210;2024-03-22T13:01:30;9.05;;;3.03;;
85935;SDS011;76481;54.346;10.210;2024-03-22T13:03:55;13.32;;;2.80;;
85935;SDS011;76481;54.346;10.210;2024-03-22T13:06:22;10.00;;;2.40;;
85935;SDS011;76481;54.346;10.210;2024-03-22T13:08:47;9.43;;;2.50;;
85935;SDS011;76481;54.346;10.210;2024-03-22T13:11:13;12.05;;;3.25;;
85935;SDS011;76481;54.346;10.210;2024-03-22T13:13:39;11.15;;;2.90;;
85935;SDS011;76481;54.346;10.210;2024-03-22T13:16:05;12.35;;;2.78;;
85935;SDS011;76481;54.346;10.210;2024-03-22T13:18:32;17.73;;;2.90;;
85935;SDS011;76481;54.346;10.210;2024-03-22T13:20:57;17.13;;;2.70;;
85935;SDS011;76481;54.346;10.210;2024-03-22T13:23:23;15.25;;;3.25;;
85935;SDS011;76481;54.346;10.210;2024-03-22T13:25:49;14.98;;;3.22;;
85935;SDS011;76481;54.346;10.210;2024-03-22T13:28:14;19.55;;;3.65;;
85935;SDS011;76481;54.346;10.210;2024-03-22T13:30:45;19.17;;;2.85;;
85935;SDS011;76481;54.346;10.210;2024-03-22T13:33:10;14.25;;;2.85;;
85935;SDS011;76481;54.346;10.210;2024-03-22T13:35:36;12.48;;;3.03;;
85935;SDS011;76481;54.346;10.210;2024-03-22T13:38:04;14.98;;;3.28;;
85935;SDS011;76481;54.346;10.210;2024-03-22T13:40:29;12.32;;;3.38;;
85935;SDS011;76481;54.346;10.210;2024-03-22T13:42:55;18.33;;;3.80;;
85935;SDS011;76481;54.346;10.210;2024-03-22T13:45:31;18.00;;;3.80;;
85935;SDS011;76481;54.346;10.210;2024-03-22T13:48:21;17.42;;;3.45;;
85935;SDS011;76481;54.346;10.210;2024-03-22T13:50:55;15.95;;;3.92;;
85935;SDS011;76481;54.346;10.210;2024-03-22T13:53:28;18.33;;;3.33;;
85935;SDS011;76481;54.346;10.210;2024-03-22T13:55:54;14.77;;;3.38;;
85935;SDS011;76481;54.346;10.210;2024-03-22T13:58:20;13.18;;;3.55;;
85935;SDS011;76481;54.346;10.210;2024-03-22T14:00:46;15.27;;;3.58;;
85935;SDS011;76481;54.346;10.210;2024-03-22T14:03:17;19.10;;;4.68;;
85935;SDS011;76481;54.346;10.210;2024-03-22T14:05:49;16.60;;;4.07;;
85935;SDS011;76481;54.346;10.210;2024-03-22T14:08:17;17.00;;;3.20;;
85935;SDS011;76481;54.346;10.210;2024-03-22T14:10:46;16.27;;;3.78;;
85935;SDS011;76481;54.346;10.210;2024-03-22T14:13:22;15.63;;;3.58;;
85935;SDS011;76481;54.346;10.210;2024-03-22T14:15:48;14.65;;;3.78;;
85935;SDS011;76481;54.346;10.210;2024-03-22T14:18:22;20.58;;;4.05;;
85935;SDS011;76481;54.346;10.210;2024-03-22T14:20:48;19.35;;;3.90;;